createdAt,value
2019-02-23T00:00:21.122Z,14.07
2019-02-23T00:02:49.705Z,14.43
2019-02-23T00:05:18.362Z,14.40
2019-02-23T00:07:46.964Z,16.37
2019-02-23T00:10:15.599Z,14.17
2019-02-23T00:12:44.145Z,14.80
2019-02-23T00:15:12.769Z,14.63
2019-02-23T00:17:41.330Z,13.83
2019-02-23T00:20:10.002Z,14.67
2019-02-23T00:22:38.629Z,13.93
2019-02-23T00:25:13.769Z,13.37
2019-02-23T00:27:42.413Z,13.20
2019-02-23T00:30:11.124Z,15.07
2019-02-23T00:32:39.816Z,14.10
2019-02-23T00:35:08.449Z,13.70
2019-02-23T00:37:37.157Z,12.70
2019-02-23T00:40:06.970Z,13.47
2019-02-23T00:42:35.822Z,12.90
2019-02-23T00:45:04.562Z,13.63
2019-02-23T00:47:33.097Z,13.73
2019-02-23T00:50:01.700Z,15.93
2019-02-23T00:52:30.349Z,13.47
2019-02-23T00:54:58.874Z,13.07
2019-02-23T00:57:27.587Z,12.40
2019-02-23T00:59:57.217Z,13.97
2019-02-23T01:02:25.827Z,14.20
2019-02-23T01:04:54.538Z,13.23
2019-02-23T01:07:23.132Z,13.83
2019-02-23T01:09:51.650Z,14.57
2019-02-23T01:12:20.356Z,16.23
2019-02-23T01:14:48.950Z,13.83
2019-02-23T01:17:17.641Z,12.37
2019-02-23T01:19:48.018Z,15.10
2019-02-23T01:22:16.884Z,11.70
2019-02-23T01:24:45.585Z,12.27
2019-02-23T01:27:14.173Z,12.67
2019-02-23T01:29:42.879Z,13.60
2019-02-23T01:32:11.466Z,12.10
2019-02-23T01:34:39.942Z,12.40
2019-02-23T01:37:08.689Z,12.33
2019-02-23T01:39:37.313Z,12.37
2019-02-23T01:42:06.327Z,14.73
2019-02-23T01:44:34.869Z,12.50
2019-02-23T01:47:03.484Z,12.67
2019-02-23T01:49:32.065Z,11.97
2019-02-23T01:52:00.697Z,11.70
2019-02-23T01:54:29.309Z,12.60
2019-02-23T01:56:58.015Z,12.50
2019-02-23T01:59:26.607Z,12.37
2019-02-23T02:01:55.259Z,13.63
2019-02-23T02:04:23.950Z,16.70
2019-02-23T02:06:52.530Z,14.70
2019-02-23T02:09:21.061Z,13.33
2019-02-23T02:11:49.616Z,13.87
2019-02-23T02:14:18.305Z,13.53
2019-02-23T02:16:46.989Z,13.80
2019-02-23T02:19:15.477Z,15.50
2019-02-23T02:21:44.102Z,14.57
2019-02-23T02:24:12.683Z,15.10
2019-02-23T02:26:41.286Z,14.90
2019-02-23T02:29:09.924Z,15.47
2019-02-23T02:31:38.616Z,16.07
2019-02-23T02:34:08.800Z,14.43
2019-02-23T02:36:37.434Z,17.67
2019-02-23T02:39:11.668Z,17.73
2019-02-23T02:41:40.357Z,19.03
2019-02-23T02:44:08.988Z,16.20
2019-02-23T02:46:37.621Z,17.93
2019-02-23T02:49:06.327Z,18.17
2019-02-23T02:51:34.939Z,17.90
2019-02-23T02:54:03.705Z,18.83
2019-02-23T02:56:32.380Z,18.53
2019-02-23T02:59:01.058Z,19.67
2019-02-23T03:01:29.766Z,21.10
2019-02-23T03:03:58.442Z,19.50
2019-02-23T03:06:27.173Z,23.00
2019-02-23T03:08:55.802Z,20.67
2019-02-23T03:11:24.354Z,21.30
2019-02-23T03:13:53.023Z,20.10
2019-02-23T03:16:21.682Z,21.77
2019-02-23T03:18:50.219Z,21.43
2019-02-23T03:21:18.798Z,22.83
2019-02-23T03:23:47.274Z,21.33
2019-02-23T03:26:15.920Z,22.77
2019-02-23T03:28:44.545Z,24.63
2019-02-23T03:31:13.115Z,21.90
2019-02-23T03:33:41.684Z,22.50
2019-02-23T03:36:10.225Z,27.97
2019-02-23T03:38:38.850Z,23.93
2019-02-23T03:41:07.455Z,23.53
2019-02-23T03:43:36.028Z,22.83
2019-02-23T03:46:04.689Z,24.47
2019-02-23T03:48:33.268Z,23.10
2019-02-23T03:51:01.862Z,24.53
2019-02-23T03:53:30.585Z,21.83
2019-02-23T03:55:59.369Z,21.70
2019-02-23T03:58:28.054Z,20.37
2019-02-23T04:00:56.661Z,22.13
2019-02-23T04:03:25.190Z,20.63
2019-02-23T04:05:53.703Z,19.93
2019-02-23T04:08:22.420Z,21.47
2019-02-23T04:10:51.053Z,19.70
2019-02-23T04:13:19.597Z,21.30
2019-02-23T04:15:48.323Z,19.90
2019-02-23T04:18:16.987Z,18.63
2019-02-23T04:20:45.633Z,19.90
2019-02-23T04:23:14.279Z,18.00
2019-02-23T04:25:42.903Z,18.43
2019-02-23T04:28:11.505Z,21.10
2019-02-23T04:30:40.213Z,18.77
2019-02-23T04:33:08.761Z,18.40
2019-02-23T04:35:37.346Z,20.40
2019-02-23T04:38:05.891Z,19.60
2019-02-23T04:40:34.538Z,18.07
2019-02-23T04:43:03.069Z,20.00
2019-02-23T04:45:31.880Z,19.07
2019-02-23T04:48:00.549Z,18.97
2019-02-23T04:50:29.234Z,16.40
2019-02-23T04:52:57.790Z,19.67
2019-02-23T04:55:26.406Z,16.70
2019-02-23T04:57:55.055Z,16.63
2019-02-23T05:00:23.638Z,18.70
2019-02-23T05:02:52.269Z,19.03
2019-02-23T05:05:20.909Z,15.83
2019-02-23T05:07:49.466Z,16.77
2019-02-23T05:10:18.032Z,15.67
2019-02-23T05:12:46.662Z,14.23
2019-02-23T05:15:15.301Z,16.30
2019-02-23T05:17:43.847Z,17.53
2019-02-23T05:20:12.587Z,17.90
2019-02-23T05:22:41.152Z,17.17
2019-02-23T05:25:09.760Z,16.77
2019-02-23T05:27:38.530Z,18.03
2019-02-23T05:30:10.380Z,15.93
2019-02-23T05:32:39.124Z,18.40
2019-02-23T05:35:10.489Z,19.43
2019-02-23T05:37:39.223Z,17.40
2019-02-23T05:40:10.395Z,16.20
2019-02-23T05:42:39.053Z,15.80
2019-02-23T05:45:09.668Z,14.87
2019-02-23T05:47:38.367Z,16.47
2019-02-23T05:50:09.000Z,14.73
2019-02-23T05:52:37.532Z,13.43
2019-02-23T05:55:06.189Z,14.23
2019-02-23T05:57:34.862Z,14.40
2019-02-23T06:00:03.718Z,12.40
2019-02-23T06:02:32.330Z,14.90
2019-02-23T06:05:00.907Z,13.27
2019-02-23T06:07:29.446Z,11.50
2019-02-23T06:09:57.997Z,12.30
2019-02-23T06:12:26.659Z,11.27
2019-02-23T06:14:55.201Z,10.17
2019-02-23T06:17:23.776Z,11.37
2019-02-23T06:19:52.341Z,9.93
2019-02-23T06:22:20.983Z,10.53
2019-02-23T06:24:49.528Z,10.50
2019-02-23T06:27:18.077Z,10.50
2019-02-23T06:29:46.762Z,10.53
2019-02-23T06:32:15.422Z,11.00
2019-02-23T06:34:43.973Z,9.83
2019-02-23T06:37:12.529Z,9.80
2019-02-23T06:39:41.175Z,10.03
2019-02-23T06:42:09.789Z,13.97
2019-02-23T06:44:38.293Z,11.20
2019-02-23T06:47:06.882Z,9.47
2019-02-23T06:49:35.431Z,13.87
2019-02-23T06:52:04.778Z,11.27
2019-02-23T06:54:33.402Z,10.40
2019-02-23T06:57:02.232Z,11.03
2019-02-23T06:59:30.778Z,9.83
2019-02-23T07:01:59.431Z,9.83
2019-02-23T07:04:28.045Z,9.00
2019-02-23T07:06:56.656Z,10.97
2019-02-23T07:09:25.370Z,10.63
2019-02-23T07:11:53.965Z,11.57
2019-02-23T07:14:22.619Z,10.17
2019-02-23T07:16:51.229Z,11.47
2019-02-23T07:19:19.912Z,8.57
2019-02-23T07:21:48.656Z,8.37
2019-02-23T07:24:17.283Z,11.30
2019-02-23T07:26:45.838Z,9.83
2019-02-23T07:29:14.462Z,9.07
2019-02-23T07:31:42.942Z,10.40
2019-02-23T07:34:11.634Z,9.63
2019-02-23T07:36:40.167Z,10.87
2019-02-23T07:39:08.801Z,8.40
2019-02-23T07:41:37.438Z,11.30
2019-02-23T07:44:06.177Z,9.33
2019-02-23T07:46:34.726Z,12.07
2019-02-23T07:49:03.340Z,8.07
2019-02-23T07:51:32.070Z,9.97
2019-02-23T07:54:00.614Z,9.50
2019-02-23T07:56:29.186Z,9.63
2019-02-23T07:58:57.869Z,8.83
2019-02-23T08:01:26.506Z,10.87
2019-02-23T08:03:55.197Z,8.97
2019-02-23T08:06:23.815Z,10.23
2019-02-23T08:08:52.578Z,9.57
2019-02-23T08:11:21.241Z,8.03
2019-02-23T08:13:49.822Z,8.57
2019-02-23T08:16:18.302Z,7.33
2019-02-23T08:18:46.905Z,10.63
2019-02-23T08:21:15.545Z,10.47
2019-02-23T08:23:44.204Z,10.27
2019-02-23T08:26:12.761Z,7.17
2019-02-23T08:28:41.386Z,8.73
2019-02-23T08:31:10.026Z,8.57
2019-02-23T08:33:38.750Z,6.80
2019-02-23T08:36:07.369Z,7.00
2019-02-23T08:38:35.942Z,6.50
2019-02-23T08:41:04.647Z,7.43
2019-02-23T08:43:33.244Z,8.17
2019-02-23T08:46:02.094Z,10.00
2019-02-23T08:48:30.719Z,8.30
2019-02-23T08:50:59.561Z,6.33
2019-02-23T08:53:28.282Z,6.67
2019-02-23T08:55:57.124Z,5.83
2019-02-23T08:58:25.724Z,9.00
2019-02-23T09:00:54.350Z,6.77
2019-02-23T09:03:24.619Z,4.80
2019-02-23T09:05:53.308Z,5.90
2019-02-23T09:08:21.847Z,7.27
2019-02-23T09:10:50.458Z,4.97
2019-02-23T09:13:19.059Z,5.23
2019-02-23T09:15:47.758Z,4.40
2019-02-23T09:18:16.494Z,4.97
2019-02-23T09:20:45.070Z,5.17
2019-02-23T09:23:13.684Z,5.30
2019-02-23T09:25:42.386Z,5.33
2019-02-23T09:28:11.068Z,5.90
2019-02-23T09:30:39.781Z,5.30
2019-02-23T09:33:08.331Z,4.90
2019-02-23T09:35:36.947Z,6.93
2019-02-23T09:38:05.675Z,5.07
2019-02-23T09:40:34.277Z,4.53
2019-02-23T09:43:02.794Z,4.33
2019-02-23T09:45:31.478Z,5.10
2019-02-23T09:48:00.045Z,4.70
2019-02-23T09:50:28.691Z,4.57
2019-02-23T09:52:57.301Z,4.43
2019-02-23T09:55:25.965Z,6.47
2019-02-23T09:57:54.681Z,6.70
2019-02-23T10:00:23.295Z,6.03
2019-02-23T10:02:52.030Z,6.07
2019-02-23T10:05:20.628Z,5.53
2019-02-23T10:07:49.250Z,5.93
2019-02-23T10:10:17.877Z,7.60
2019-02-23T10:12:46.488Z,5.83
2019-02-23T10:15:15.103Z,7.20
2019-02-23T10:17:43.753Z,5.63
2019-02-23T10:20:13.563Z,5.87
2019-02-23T10:22:42.322Z,6.40
2019-02-23T10:25:10.959Z,4.70
2019-02-23T10:27:39.571Z,5.23
2019-02-23T10:30:11.113Z,5.97
2019-02-23T10:32:39.721Z,5.57
2019-02-23T10:35:10.175Z,4.53
2019-02-23T10:37:38.864Z,5.90
2019-02-23T10:40:09.972Z,6.60
2019-02-23T10:42:38.738Z,7.87
2019-02-23T10:45:10.007Z,7.63
2019-02-23T10:47:38.614Z,6.10
2019-02-23T10:50:09.895Z,5.17
2019-02-23T10:52:38.615Z,8.07
2019-02-23T10:55:13.054Z,6.93
2019-02-23T10:57:41.835Z,5.53
2019-02-23T11:00:22.368Z,5.33
2019-02-23T11:02:51.165Z,8.80
2019-02-23T11:05:20.492Z,5.13
2019-02-23T11:07:49.241Z,5.27
2019-02-23T11:10:18.482Z,6.20
2019-02-23T11:12:47.165Z,6.33
2019-02-23T11:15:17.829Z,6.80
2019-02-23T11:17:46.538Z,5.53
2019-02-23T11:20:16.514Z,5.90
2019-02-23T11:22:45.100Z,6.20
2019-02-23T11:25:13.819Z,8.63
2019-02-23T11:27:42.382Z,6.53
2019-02-23T11:30:15.255Z,6.77
2019-02-23T11:32:44.013Z,8.63
2019-02-23T11:35:16.416Z,5.63
2019-02-23T11:37:44.543Z,4.90
2019-02-23T11:40:14.525Z,6.50
2019-02-23T11:42:43.223Z,6.43
2019-02-23T11:45:12.618Z,6.03
2019-02-23T11:47:41.231Z,6.10
2019-02-23T11:50:11.590Z,6.67
2019-02-23T11:52:40.490Z,6.43
2019-02-23T11:55:09.271Z,6.10
2019-02-23T11:57:37.963Z,6.60
2019-02-23T12:00:12.185Z,6.93
2019-02-23T12:02:51.704Z,8.00
2019-02-23T12:05:11.619Z,5.83
2019-02-23T12:07:40.249Z,7.23
2019-02-23T12:10:13.531Z,7.70
2019-02-23T12:12:42.219Z,6.50
2019-02-23T12:15:11.049Z,6.37
2019-02-23T12:17:39.742Z,6.90
2019-02-23T12:20:12.270Z,7.87
2019-02-23T12:22:40.800Z,7.33
2019-02-23T12:25:09.710Z,8.67
2019-02-23T12:27:38.321Z,6.30
2019-02-23T12:30:09.832Z,7.47
2019-02-23T12:32:38.617Z,8.80
2019-02-23T12:35:09.553Z,7.50
2019-02-23T12:37:38.146Z,8.67
2019-02-23T12:40:08.172Z,6.47
2019-02-23T12:42:36.878Z,8.47
2019-02-23T12:45:08.175Z,8.13
2019-02-23T12:47:36.671Z,8.80
2019-02-23T12:50:13.181Z,10.80
2019-02-23T12:52:47.500Z,10.50
2019-02-23T12:55:16.110Z,7.03
2019-02-23T12:57:44.677Z,8.53
2019-02-23T13:00:17.797Z,7.20
2019-02-23T13:02:46.618Z,7.77
2019-02-23T13:05:15.290Z,9.17
2019-02-23T13:07:44.027Z,7.63
2019-02-23T13:10:13.336Z,7.17
2019-02-23T13:13:00.149Z,7.23
2019-02-23T13:15:40.456Z,8.13
2019-02-23T13:18:23.907Z,6.57
2019-02-23T13:21:01.112Z,8.47
2019-02-23T13:23:52.053Z,7.17
2019-02-23T13:26:23.653Z,8.27
2019-02-23T13:29:26.641Z,8.17
2019-02-23T13:32:01.001Z,8.83
2019-02-23T13:34:35.298Z,7.53
2019-02-23T13:37:18.593Z,7.73
2019-02-23T13:39:53.271Z,6.23
2019-02-23T13:42:43.906Z,5.60
2019-02-23T13:45:24.164Z,8.83
2019-02-23T13:47:55.701Z,8.37
2019-02-23T13:50:52.573Z,6.40
2019-02-23T13:53:43.808Z,7.90
2019-02-23T13:56:42.209Z,6.10
2019-02-23T13:59:30.083Z,8.73
2019-02-23T14:02:07.601Z,5.53
2019-02-23T14:04:42.037Z,6.07
2019-02-23T14:07:27.676Z,6.00
2019-02-23T14:10:10.701Z,6.90
2019-02-23T14:12:54.461Z,5.70
2019-02-23T14:15:45.118Z,5.30
2019-02-23T14:18:34.293Z,8.37
2019-02-23T14:21:34.153Z,8.27
2019-02-23T14:24:35.421Z,5.80
2019-02-23T14:27:15.547Z,6.00
2019-02-23T14:29:47.189Z,6.47
2019-02-23T14:32:42.582Z,5.40
2019-02-23T14:35:28.598Z,6.03
2019-02-23T14:38:02.811Z,5.10
2019-02-23T14:40:55.216Z,6.20
2019-02-23T14:43:46.069Z,5.70
2019-02-23T14:46:35.526Z,4.70
2019-02-23T14:49:10.225Z,8.47
2019-02-23T14:52:13.168Z,6.57
2019-02-23T14:54:47.310Z,5.07
2019-02-23T14:57:30.805Z,7.90
2019-02-23T15:00:24.490Z,4.80
2019-02-23T15:03:07.798Z,5.10
2019-02-23T15:05:48.363Z,9.97
2019-02-23T15:08:37.826Z,3.87
2019-02-23T15:11:30.145Z,5.53
2019-02-23T15:14:07.417Z,4.13
2019-02-23T15:16:56.612Z,6.57
2019-02-23T15:19:49.015Z,5.93
2019-02-23T15:22:23.629Z,4.13
2019-02-23T15:24:57.861Z,4.97
2019-02-23T15:27:34.953Z,3.67
2019-02-23T15:30:21.306Z,3.97
2019-02-23T15:33:13.837Z,4.93
2019-02-23T15:35:48.490Z,4.47
2019-02-23T15:38:37.857Z,3.83
2019-02-23T15:41:36.332Z,4.43
2019-02-23T15:44:37.983Z,4.93
2019-02-23T15:47:27.384Z,4.73
2019-02-23T15:49:56.032Z,6.23
2019-02-23T15:52:25.465Z,4.43
2019-02-23T15:54:54.032Z,8.77
2019-02-23T15:57:22.720Z,3.60
2019-02-23T15:59:51.284Z,4.87
2019-02-23T16:02:20.042Z,4.20
2019-02-23T16:04:48.570Z,4.30
2019-02-23T16:07:17.146Z,4.83
2019-02-23T16:09:45.604Z,4.07
2019-02-23T16:12:14.205Z,8.70
2019-02-23T16:14:42.793Z,7.40
2019-02-23T16:17:11.507Z,4.70
2019-02-23T16:19:40.021Z,4.00
2019-02-23T16:22:08.686Z,5.73
2019-02-23T16:24:37.340Z,3.33
2019-02-23T16:27:06.009Z,3.87
2019-02-23T16:29:38.753Z,4.63
2019-02-23T16:32:04.972Z,3.33
2019-02-23T16:34:33.549Z,3.47
2019-02-23T16:37:02.074Z,7.33
2019-02-23T16:39:30.713Z,3.13
2019-02-23T16:41:59.403Z,4.57
2019-02-23T16:44:28.002Z,3.50
2019-02-23T16:46:56.553Z,3.60
2019-02-23T16:49:25.081Z,5.50
2019-02-23T16:51:53.807Z,4.27
2019-02-23T16:54:22.455Z,3.43
2019-02-23T16:56:51.059Z,4.00
2019-02-23T16:59:19.666Z,3.23
2019-02-23T17:01:49.539Z,6.07
2019-02-23T17:04:18.057Z,4.07
2019-02-23T17:06:46.628Z,3.13
2019-02-23T17:09:15.310Z,2.60
2019-02-23T17:11:43.879Z,3.93
2019-02-23T17:14:12.496Z,2.83
2019-02-23T17:16:41.130Z,4.67
2019-02-23T17:19:10.286Z,3.80
2019-02-23T17:21:39.095Z,4.43
2019-02-23T17:24:07.803Z,4.60
2019-02-23T17:26:36.906Z,5.80
2019-02-23T17:29:12.673Z,3.43
2019-02-23T17:31:45.602Z,4.53
2019-02-23T17:34:16.347Z,6.13
2019-02-23T17:36:44.763Z,3.73
2019-02-23T17:39:13.489Z,3.50
2019-02-23T17:41:42.533Z,4.40
2019-02-23T17:44:11.158Z,4.30
2019-02-23T17:46:43.279Z,4.23
2019-02-23T17:49:13.699Z,5.47
2019-02-23T17:51:52.656Z,4.80
2019-02-23T17:54:21.715Z,6.23
2019-02-23T17:56:52.888Z,3.60
2019-02-23T17:59:21.542Z,6.13
2019-02-23T18:01:55.854Z,4.60
2019-02-23T18:04:26.031Z,5.43
2019-02-23T18:06:54.660Z,3.50
2019-02-23T18:09:23.708Z,3.83
2019-02-23T18:11:52.300Z,5.67
2019-02-23T18:14:20.861Z,5.00
2019-02-23T18:16:49.579Z,3.67
2019-02-23T18:19:18.109Z,5.37
2019-02-23T18:21:51.624Z,5.97
2019-02-23T18:24:19.493Z,5.57
2019-02-23T18:26:48.123Z,5.90
2019-02-23T18:29:16.717Z,4.90
2019-02-23T18:31:45.199Z,4.33
2019-02-23T18:34:13.743Z,5.70
2019-02-23T18:36:42.313Z,8.23
2019-02-23T18:39:10.932Z,8.07
2019-02-23T18:41:39.577Z,3.37
2019-02-23T18:44:08.202Z,4.47
2019-02-23T18:46:36.718Z,4.70
2019-02-23T18:49:05.402Z,4.73
2019-02-23T18:51:34.307Z,7.10
2019-02-23T18:54:02.943Z,6.93
2019-02-23T18:56:31.623Z,5.20
2019-02-23T18:59:08.671Z,4.97
2019-02-23T19:01:44.166Z,4.10
2019-02-23T19:04:12.834Z,4.80
2019-02-23T19:07:22.215Z,5.03
2019-02-23T19:09:55.273Z,5.23
2019-02-23T19:12:24.280Z,4.90
2019-02-23T19:14:53.669Z,5.03
2019-02-23T19:17:22.255Z,4.77
2019-02-23T19:19:53.194Z,6.30
2019-02-23T19:22:23.415Z,4.67
2019-02-23T19:24:55.648Z,6.73
2019-02-23T19:27:26.357Z,3.50
2019-02-23T19:29:58.668Z,5.07
2019-02-23T19:35:28.472Z,6.93
2019-02-23T19:38:09.494Z,4.07
2019-02-23T19:40:41.469Z,5.00
2019-02-23T19:43:27.977Z,5.30
2019-02-23T19:46:09.458Z,5.73
2019-02-23T19:48:43.564Z,5.13
2019-02-23T19:54:48.282Z,5.07
2019-02-23T20:00:22.467Z,4.17
2019-02-23T20:08:47.725Z,3.17
2019-02-23T20:11:16.373Z,4.07
2019-02-23T20:13:45.057Z,6.10
2019-02-23T20:16:13.718Z,4.40
2019-02-23T20:18:42.462Z,3.97
2019-02-23T20:21:11.035Z,4.97
2019-02-23T20:23:39.703Z,3.47
2019-02-23T20:26:08.508Z,3.53
2019-02-23T20:28:37.086Z,4.33
2019-02-23T20:31:05.821Z,4.37
2019-02-23T20:33:34.520Z,5.93
2019-02-23T20:36:03.119Z,4.10
2019-02-23T20:38:31.634Z,2.97
2019-02-23T20:41:00.160Z,3.43
2019-02-23T20:43:28.828Z,4.50
2019-02-23T20:45:57.374Z,6.13
2019-02-23T20:48:26.152Z,4.00
2019-02-23T20:50:54.750Z,4.33
2019-02-23T20:53:23.446Z,3.80
2019-02-23T20:55:52.043Z,4.60
2019-02-23T20:58:20.702Z,3.70
2019-02-23T21:00:49.722Z,3.63
2019-02-23T21:03:18.366Z,4.60
2019-02-23T21:05:47.069Z,6.47
2019-02-23T21:08:15.790Z,3.27
2019-02-23T21:10:44.362Z,5.00
2019-02-23T21:13:12.914Z,4.53
2019-02-23T21:15:41.551Z,3.27
2019-02-23T21:18:10.149Z,3.77
2019-02-23T21:20:38.836Z,3.47
2019-02-23T21:23:07.489Z,3.00
2019-02-23T21:25:36.186Z,4.70
2019-02-23T21:28:04.884Z,3.57
2019-02-23T21:30:33.658Z,3.80
2019-02-23T21:33:02.258Z,4.90
2019-02-23T21:35:31.017Z,2.93
2019-02-23T21:37:59.647Z,3.23
2019-02-23T21:40:28.732Z,4.97
2019-02-23T21:45:46.727Z,2.47
2019-02-23T21:48:15.366Z,3.20
2019-02-23T21:50:44.012Z,4.60
2019-02-23T21:53:12.598Z,4.50
2019-02-23T21:55:41.234Z,3.77
2019-02-23T21:58:09.798Z,3.67
2019-02-23T22:00:38.350Z,3.93
2019-02-23T22:03:07.172Z,4.07
2019-02-23T22:05:38.861Z,3.63
2019-02-23T22:08:09.535Z,8.20
2019-02-23T22:10:38.049Z,4.83
2019-02-23T22:13:06.870Z,3.27
2019-02-23T22:15:35.506Z,4.57
2019-02-23T22:18:04.342Z,2.67
2019-02-23T22:20:32.934Z,3.43
2019-02-23T22:23:01.501Z,3.97
2019-02-23T22:25:30.056Z,4.53
2019-02-23T22:27:58.784Z,3.30
2019-02-23T22:30:27.478Z,4.10
2019-02-23T22:32:56.215Z,4.80
2019-02-23T22:35:24.727Z,6.23
2019-02-23T22:37:53.481Z,3.20
2019-02-23T22:40:22.214Z,4.03
2019-02-23T22:42:50.795Z,3.90
2019-02-23T22:45:19.523Z,4.03
2019-02-23T22:47:48.076Z,4.77
2019-02-23T22:50:16.714Z,5.03
2019-02-23T22:52:45.527Z,3.33
2019-02-23T22:55:14.250Z,4.57
2019-02-23T22:57:42.925Z,4.23
2019-02-23T23:00:15.073Z,3.80
2019-02-23T23:02:43.754Z,2.67
2019-02-23T23:05:12.409Z,5.03
2019-02-23T23:07:41.058Z,4.57
2019-02-23T23:10:09.777Z,4.43
2019-02-23T23:12:38.313Z,3.43
2019-02-23T23:15:08.126Z,4.40
2019-02-23T23:17:36.763Z,5.73
2019-02-23T23:20:07.577Z,4.33
2019-02-23T23:22:36.282Z,5.57
2019-02-23T23:25:06.589Z,4.23
2019-02-23T23:27:35.280Z,3.93
2019-02-23T23:30:05.057Z,3.23
2019-02-23T23:32:33.618Z,6.57
2019-02-23T23:35:02.271Z,6.13
2019-02-23T23:37:30.949Z,6.53
2019-02-23T23:39:59.439Z,3.50
2019-02-23T23:42:28.165Z,5.93
2019-02-23T23:44:57.056Z,4.60
2019-02-23T23:47:25.697Z,3.67
2019-02-23T23:49:54.393Z,6.03
2019-02-23T23:52:22.954Z,5.70
2019-02-23T23:54:51.493Z,2.43
2019-02-23T23:57:20.078Z,3.40
2019-02-23T23:59:48.605Z,3.43
